首页
METAR-TAF:

METAR-TAF

机场 :

布里斯托機場

布里斯托尔, 英格兰

纬度: 51-23N, 经度: 002-43W, 海拔: 189米

当前天气观测

该预报发布于16分钟前的21:50 UTC
风速9节,风向东南
温度 11°C
湿度 94%
气压 1003 hPa
能见度10公里或以上
多云层高于3000英尺
阴天层高于4000英尺

METAR: EGGD 152150Z AUTO 14009KT 9999 BKN030 OVC040 11/10 Q1003

时间: 23:06 (22:06 UTC)

预报

该预报发布于5小时和6分钟前的17:00 UTC
预报有效从15日的 18点(UTC)到 16日的 18点(UTC)
风速10节,风向西转西南
能见度10公里或以上
散云层高于3000英尺
成为
从 15日的 18点(UTC)到 15日的 21点(UTC)
风速9节,风向
成为
从 15日的 21点(UTC)到 16日的 01点(UTC)
能見度: 8000
多云层高于1000英尺
小雨
短暂存在
从 15日的 21点(UTC)到 16日的 04点(UTC)
风速18节,风向南转南东,有时为28节阵风
能見度: 4000
多云层高于400英尺
雨, 毛毛雨
几率 30%
从 16日的 00点(UTC)到 16日的 04点(UTC)
能見度: 1100
多云层高于100英尺
大雨, 毛毛雨, 轻雾
成为
从 16日的 03点(UTC)到 16日的 07点(UTC)
风速8节,风向西
能见度10公里或以上
散云层高于3000英尺

TAF: EGGD 151700Z 1518/1618 25010KT 9999 SCT030 BECMG 1518/1521 18009KT BECMG 1521/1601 8000 -RA BKN010 TEMPO 1521/1604 16018G28KT 4000 RADZ BKN004 PROB30 1600/1604 1100 +RADZ BR BKN001 BECMG 1603/1607 26008KT 9999 NSW SCT030

超过4000个机场的气象观测和天气预报(METAR&TAF报告)。

可查询的气象台以黄色和红色小点在地图上表示。

将鼠标移到小点上方,可查看气象台名称。

然后点击查看天气观测和预报。

如需切换地图:点击带黑十字的绿色按钮放大地图;点击带横线的绿色按钮缩小地图;或者点击绿色箭头查看邻近地区的地图。


METAR-TAF: